createdAt,value
2022-11-05T00:00:15.351Z,7.10
2022-11-05T00:03:01.042Z,7.00
2022-11-05T00:05:46.585Z,7.10
2022-11-05T00:08:32.493Z,7.00
2022-11-05T00:10:59.349Z,7.00
2022-11-05T00:13:44.660Z,7.00
2022-11-05T00:16:40.686Z,7.00
2022-11-05T00:19:07.515Z,7.10
2022-11-05T00:21:54.783Z,7.10
2022-11-05T00:24:40.766Z,7.10
2022-11-05T00:27:08.024Z,7.10
2022-11-05T00:29:35.019Z,7.10
2022-11-05T00:32:02.102Z,7.20
2022-11-05T00:34:29.210Z,7.10
2022-11-05T00:36:56.362Z,7.20
2022-11-05T00:39:23.148Z,7.10
2022-11-05T00:42:09.858Z,7.10
2022-11-05T00:44:55.326Z,7.00
2022-11-05T00:47:40.660Z,7.00
2022-11-05T00:50:07.756Z,7.00
2022-11-05T00:52:53.111Z,6.90
2022-11-05T00:55:19.966Z,6.90
2022-11-05T00:57:46.797Z,6.90
2022-11-05T01:00:14.276Z,6.90
2022-11-05T01:02:41.213Z,6.80
2022-11-05T01:05:08.655Z,6.90
2022-11-05T01:07:35.430Z,6.80
2022-11-05T01:10:02.260Z,6.80
2022-11-05T01:12:30.407Z,6.80
2022-11-05T01:14:57.170Z,6.80
2022-11-05T01:17:24.068Z,6.90
2022-11-05T01:19:51.300Z,6.80
2022-11-05T01:22:18.070Z,6.80
2022-11-05T01:24:44.889Z,6.80
2022-11-05T01:27:11.603Z,6.80
2022-11-05T01:29:38.352Z,6.70
2022-11-05T01:32:05.365Z,6.70
2022-11-05T01:34:32.275Z,6.70
2022-11-05T01:36:59.067Z,6.70
2022-11-05T01:39:25.899Z,6.70
2022-11-05T01:41:52.628Z,6.70
2022-11-05T01:44:57.166Z,6.60
2022-11-05T01:47:42.638Z,6.60
2022-11-05T01:50:31.517Z,6.50
2022-11-05T01:53:03.877Z,6.60
2022-11-05T01:55:35.417Z,6.50
2022-11-05T01:58:06.161Z,6.60
2022-11-05T02:00:34.489Z,6.50
2022-11-05T02:03:02.205Z,6.60
2022-11-05T02:05:29.463Z,6.60
2022-11-05T02:07:56.569Z,6.60
2022-11-05T02:10:24.209Z,6.50
2022-11-05T02:12:51.217Z,6.60
2022-11-05T02:15:39.948Z,6.50
2022-11-05T02:18:17.603Z,6.60
2022-11-05T02:21:00.091Z,6.60
2022-11-05T02:23:48.421Z,6.50
2022-11-05T02:26:51.729Z,6.50
2022-11-05T02:29:49.461Z,6.50
2022-11-05T02:32:41.528Z,6.40
2022-11-05T02:35:46.476Z,6.40
2022-11-05T02:38:28.884Z,6.40
2022-11-05T02:41:18.400Z,6.30
2022-11-05T02:44:16.972Z,6.40
2022-11-05T02:47:05.834Z,6.40
2022-11-05T02:49:45.005Z,6.40
2022-11-05T02:52:21.174Z,6.50
2022-11-05T02:54:59.427Z,6.50
2022-11-05T02:57:29.173Z,6.40
2022-11-05T03:00:28.374Z,6.30
2022-11-05T03:02:55.390Z,6.40
2022-11-05T03:05:29.435Z,6.40
2022-11-05T03:08:08.122Z,6.50
2022-11-05T03:11:11.548Z,6.50
2022-11-05T03:14:18.824Z,6.50
2022-11-05T03:17:00.040Z,6.50
2022-11-05T03:19:35.575Z,6.40
2022-11-05T03:22:17.604Z,6.50
2022-11-05T03:24:52.157Z,6.60
2022-11-05T03:27:23.841Z,6.50
2022-11-05T03:29:57.242Z,6.50
2022-11-05T03:32:27.314Z,6.60
2022-11-05T03:35:02.199Z,6.40
2022-11-05T03:37:33.864Z,6.40
2022-11-05T03:40:04.128Z,6.60
2022-11-05T03:42:35.676Z,6.50
2022-11-05T03:45:09.540Z,6.50
2022-11-05T03:47:40.936Z,6.50
2022-11-05T03:50:12.935Z,6.50
2022-11-05T03:52:47.724Z,6.50
2022-11-05T03:55:15.180Z,6.60
2022-11-05T03:57:47.165Z,6.50
2022-11-05T04:00:14.186Z,6.50
2022-11-05T04:02:41.970Z,6.50
2022-11-05T04:05:09.197Z,6.50
2022-11-05T04:07:54.844Z,6.50
2022-11-05T04:10:40.485Z,6.50
2022-11-05T04:13:25.964Z,6.60
2022-11-05T04:16:13.114Z,6.60
2022-11-05T04:18:40.573Z,6.60
2022-11-05T04:21:26.693Z,6.70
2022-11-05T04:24:08.624Z,6.60
2022-11-05T04:26:47.422Z,6.80
2022-11-05T04:29:32.626Z,6.70
2022-11-05T04:31:59.355Z,6.70
2022-11-05T04:34:26.137Z,6.70
2022-11-05T04:36:53.319Z,7.40
2022-11-05T04:39:20.926Z,6.70
2022-11-05T04:41:48.793Z,6.80
2022-11-05T04:44:16.309Z,6.70
2022-11-05T04:46:43.573Z,6.70
2022-11-05T04:49:10.444Z,6.70
2022-11-05T04:51:37.195Z,6.70
2022-11-05T04:54:04.076Z,6.60
2022-11-05T04:56:30.968Z,6.70
2022-11-05T04:58:57.860Z,6.80
2022-11-05T05:01:25.656Z,6.70
2022-11-05T05:03:54.028Z,6.80
2022-11-05T05:06:21.722Z,6.70
2022-11-05T05:08:50.310Z,6.70
2022-11-05T05:11:20.197Z,6.70
2022-11-05T05:13:47.812Z,6.60
2022-11-05T05:16:23.643Z,6.50
2022-11-05T05:18:50.817Z,6.50
2022-11-05T05:21:37.791Z,6.40
2022-11-05T05:24:06.175Z,6.80
2022-11-05T05:26:33.005Z,6.60
2022-11-05T05:28:59.719Z,6.60
2022-11-05T05:31:26.500Z,6.60
2022-11-05T05:33:54.455Z,6.60
2022-11-05T05:36:22.460Z,6.50
2022-11-05T05:38:49.545Z,6.50
2022-11-05T05:41:16.835Z,6.70
2022-11-05T05:43:43.864Z,6.40
2022-11-05T05:46:12.877Z,6.30
2022-11-05T05:48:40.506Z,6.40
2022-11-05T05:51:09.793Z,6.90
2022-11-05T05:53:37.807Z,6.50
2022-11-05T05:56:05.555Z,6.60
2022-11-05T05:58:36.158Z,6.60
2022-11-05T06:01:18.946Z,6.60
2022-11-05T06:03:47.432Z,6.70
2022-11-05T06:06:15.742Z,6.70
2022-11-05T06:08:43.103Z,6.70
2022-11-05T06:11:09.976Z,6.90
2022-11-05T06:13:37.456Z,6.60
2022-11-05T06:16:06.723Z,6.60
2022-11-05T06:18:34.480Z,6.50
2022-11-05T06:21:06.671Z,6.70
2022-11-05T06:23:34.936Z,6.60
2022-11-05T06:26:06.817Z,6.50
2022-11-05T06:28:34.659Z,6.50
2022-11-05T06:31:02.129Z,6.60
2022-11-05T06:33:29.240Z,6.50
2022-11-05T06:35:59.414Z,6.60
2022-11-05T06:38:26.313Z,6.60
2022-11-05T06:40:53.276Z,6.50
2022-11-05T06:43:20.054Z,6.50
2022-11-05T06:45:46.771Z,6.60
2022-11-05T06:48:13.545Z,6.50
2022-11-05T06:50:44.152Z,7.00
2022-11-05T06:53:11.507Z,6.50
2022-11-05T06:55:38.587Z,6.50
2022-11-05T06:58:05.588Z,6.70
2022-11-05T07:00:32.815Z,6.60
2022-11-05T07:03:07.275Z,6.60
2022-11-05T07:05:37.543Z,6.70
2022-11-05T07:08:04.502Z,6.60
2022-11-05T07:10:31.387Z,6.70
2022-11-05T07:12:58.134Z,6.70
2022-11-05T07:15:24.954Z,6.80
2022-11-05T07:17:57.388Z,6.90
2022-11-05T07:20:24.141Z,6.80
2022-11-05T07:22:51.144Z,6.90
2022-11-05T07:25:18.027Z,6.80
2022-11-05T07:27:44.854Z,6.80
2022-11-05T07:30:11.919Z,7.00
2022-11-05T07:32:40.218Z,7.00
2022-11-05T07:35:08.869Z,7.10
2022-11-05T07:37:46.647Z,7.00
2022-11-05T07:40:14.898Z,7.20
2022-11-05T07:42:46.380Z,7.20
2022-11-05T07:45:13.563Z,7.20
2022-11-05T07:47:48.956Z,7.10
2022-11-05T07:50:17.453Z,7.10
2022-11-05T07:52:44.729Z,7.20
2022-11-05T07:55:13.302Z,7.20
2022-11-05T07:57:47.601Z,7.30
2022-11-05T08:00:17.230Z,7.20
2022-11-05T08:02:44.298Z,7.30
2022-11-05T08:05:11.236Z,7.70
2022-11-05T08:07:38.092Z,7.30
2022-11-05T08:10:05.345Z,7.40
2022-11-05T08:12:32.660Z,7.40
2022-11-05T08:14:59.602Z,7.50
2022-11-05T08:17:26.414Z,7.50
2022-11-05T08:19:53.252Z,7.50
2022-11-05T08:22:20.078Z,7.60
2022-11-05T08:24:46.866Z,7.60
2022-11-05T08:27:14.061Z,7.60
2022-11-05T08:29:40.790Z,7.60
2022-11-05T08:32:07.619Z,7.50
2022-11-05T08:34:34.393Z,7.60
2022-11-05T08:37:02.035Z,7.60
2022-11-05T08:39:29.021Z,7.60
2022-11-05T08:41:55.842Z,7.70
2022-11-05T08:44:22.881Z,7.70
2022-11-05T08:46:49.846Z,7.90
2022-11-05T08:49:16.829Z,8.00
2022-11-05T08:51:44.835Z,8.00
2022-11-05T08:54:11.640Z,8.20
2022-11-05T09:51:24.504Z,13.70
2022-11-05T09:53:51.654Z,13.50
2022-11-05T09:56:30.711Z,13.40
2022-11-05T09:59:14.040Z,12.90
2022-11-05T10:01:42.577Z,12.60
2022-11-05T10:04:16.355Z,12.20
2022-11-05T10:06:51.705Z,11.90
2022-11-05T10:09:25.297Z,11.60
2022-11-05T10:12:02.679Z,11.40
2022-11-05T10:14:36.513Z,11.40
2022-11-05T10:17:14.508Z,11.40
2022-11-05T10:19:47.598Z,11.60
2022-11-05T10:22:16.756Z,11.90
2022-11-05T10:24:47.198Z,12.10
2022-11-05T10:27:23.268Z,12.40
2022-11-05T10:29:50.513Z,12.60
2022-11-05T10:32:34.828Z,13.00
2022-11-05T10:35:04.388Z,12.90
2022-11-05T10:37:34.977Z,13.00
2022-11-05T10:40:26.078Z,13.10
2022-11-05T10:43:02.370Z,13.10
2022-11-05T10:45:42.537Z,13.00
2022-11-05T10:48:44.392Z,13.00
2022-11-05T10:51:11.711Z,13.10
2022-11-05T10:53:39.820Z,13.10
2022-11-05T10:56:32.349Z,13.10
2022-11-05T10:59:00.714Z,13.20
2022-11-05T11:01:28.616Z,13.30
2022-11-05T11:04:20.429Z,13.30
2022-11-05T11:06:53.757Z,13.00
2022-11-05T11:09:33.006Z,13.20
2022-11-05T11:12:27.678Z,12.90
2022-11-05T11:15:27.267Z,12.90
2022-11-05T11:17:55.414Z,12.70
2022-11-05T11:20:32.864Z,12.70
2022-11-05T11:23:16.952Z,12.70
2022-11-05T11:26:03.860Z,12.60
2022-11-05T11:28:40.777Z,12.90
2022-11-05T11:31:13.385Z,13.00
2022-11-05T11:33:44.507Z,12.90
2022-11-05T11:36:12.713Z,13.10
2022-11-05T11:38:40.142Z,12.90
2022-11-05T11:41:27.713Z,13.10
2022-11-05T11:43:59.411Z,13.10
2022-11-05T11:46:30.094Z,13.20
2022-11-05T11:48:56.816Z,13.10
2022-11-05T11:51:32.459Z,13.10
2022-11-05T11:54:00.595Z,13.00
2022-11-05T11:56:28.985Z,13.10
2022-11-05T11:58:57.532Z,13.10
2022-11-05T12:01:33.524Z,13.10
2022-11-05T12:04:25.485Z,13.10
2022-11-05T12:07:01.140Z,13.10
2022-11-05T12:09:33.350Z,13.00
2022-11-05T12:12:11.658Z,13.30
2022-11-05T12:14:52.298Z,13.10
2022-11-05T12:17:43.364Z,13.50
2022-11-05T12:20:19.260Z,13.10
2022-11-05T12:23:11.116Z,13.30
2022-11-05T12:25:46.140Z,13.30
2022-11-05T12:28:15.782Z,13.20
2022-11-05T12:31:17.950Z,13.00
2022-11-05T12:34:03.106Z,12.90
2022-11-05T12:36:41.159Z,12.80
2022-11-05T12:39:43.838Z,12.90
2022-11-05T12:42:29.176Z,13.00
2022-11-05T12:45:23.575Z,13.00
2022-11-05T12:48:22.038Z,13.00
2022-11-05T12:51:02.312Z,13.10
2022-11-05T12:53:34.971Z,13.10
2022-11-05T12:56:12.592Z,13.00
2022-11-05T12:58:48.680Z,13.20
2022-11-05T13:01:23.228Z,13.10
2022-11-05T13:03:57.434Z,13.20
2022-11-05T13:06:35.238Z,13.10
2022-11-05T13:09:12.052Z,13.00
2022-11-05T13:12:02.207Z,13.10
2022-11-05T13:14:53.902Z,13.40
2022-11-05T13:17:24.641Z,12.80
2022-11-05T13:20:17.747Z,12.90
2022-11-05T13:23:31.148Z,12.80
2022-11-05T13:26:10.342Z,12.60
2022-11-05T13:29:02.519Z,12.70
2022-11-05T13:31:37.638Z,12.40
2022-11-05T13:34:12.120Z,12.40
2022-11-05T13:36:57.441Z,12.50
2022-11-05T13:39:32.127Z,12.60
2022-11-05T13:42:36.965Z,12.40
2022-11-05T13:45:25.298Z,12.40
2022-11-05T13:48:14.127Z,12.30
2022-11-05T13:51:06.757Z,12.30
2022-11-05T13:53:38.727Z,12.20
2022-11-05T13:56:23.766Z,12.20
2022-11-05T13:59:26.519Z,12.20
2022-11-05T14:01:58.891Z,12.10
2022-11-05T14:04:28.537Z,12.10
2022-11-05T14:07:05.191Z,12.20
2022-11-05T14:09:34.790Z,12.20
2022-11-05T14:12:02.201Z,12.30
2022-11-05T14:14:33.458Z,12.50
2022-11-05T14:17:09.096Z,12.50
2022-11-05T14:19:56.229Z,12.40
2022-11-05T14:22:37.781Z,12.30
2022-11-05T14:25:19.924Z,12.20
2022-11-05T14:27:57.920Z,12.20
2022-11-05T14:30:41.318Z,12.00
2022-11-05T14:33:26.481Z,11.90
2022-11-05T14:36:13.799Z,12.00
2022-11-05T14:38:48.754Z,12.20
2022-11-05T14:41:15.936Z,12.10
2022-11-05T14:43:53.591Z,11.90
2022-11-05T14:46:20.868Z,11.80
2022-11-05T14:48:52.814Z,11.50
2022-11-05T14:51:44.212Z,11.60
2022-11-05T14:54:20.138Z,11.70
2022-11-05T14:56:58.675Z,11.50
2022-11-05T14:59:25.402Z,11.20
2022-11-05T15:01:56.984Z,11.20
2022-11-05T15:04:33.734Z,11.30
2022-11-05T15:07:03.453Z,11.10
2022-11-05T15:10:18.459Z,11.00
2022-11-05T15:12:50.495Z,10.90
2022-11-05T15:15:27.730Z,10.80
2022-11-05T15:17:58.287Z,11.00
2022-11-05T15:20:38.848Z,10.80
2022-11-05T15:23:19.003Z,10.80
2022-11-05T15:25:54.817Z,10.70
2022-11-05T15:28:42.789Z,10.60
2022-11-05T15:31:12.516Z,10.50
2022-11-05T15:33:40.972Z,10.40
2022-11-05T15:36:27.236Z,10.70
2022-11-05T15:39:22.841Z,10.50
2022-11-05T15:41:41.220Z,10.50
2022-11-05T15:44:30.718Z,10.60
2022-11-05T15:47:20.776Z,10.40
2022-11-05T15:49:52.522Z,10.40
2022-11-05T15:52:21.901Z,10.40
2022-11-05T15:55:17.219Z,10.40
2022-11-05T15:57:50.456Z,10.40
2022-11-05T16:00:30.007Z,10.50
2022-11-05T16:03:07.693Z,10.40
2022-11-05T16:05:41.167Z,10.40
2022-11-05T16:08:18.221Z,10.40
2022-11-05T16:10:50.329Z,10.60
2022-11-05T16:13:36.613Z,10.30
2022-11-05T16:16:24.988Z,10.30
2022-11-05T16:18:52.770Z,10.40
2022-11-05T16:21:22.787Z,10.30
2022-11-05T16:23:49.622Z,10.40
2022-11-05T16:29:46.231Z,10.30
2022-11-05T16:32:24.168Z,10.30
2022-11-05T16:35:01.538Z,10.10
2022-11-05T16:37:40.005Z,10.20
2022-11-05T16:40:18.679Z,10.20
2022-11-05T16:42:48.461Z,10.20
2022-11-05T16:45:17.148Z,10.20
2022-11-05T16:47:45.179Z,10.30
2022-11-05T16:50:18.853Z,10.60
2022-11-05T16:52:47.016Z,10.30
2022-11-05T16:55:15.652Z,10.30
2022-11-05T16:57:44.604Z,10.20
2022-11-05T17:00:15.699Z,10.40
2022-11-05T17:02:43.090Z,10.40
2022-11-05T17:05:29.888Z,10.60
2022-11-05T17:07:57.676Z,10.40
2022-11-05T17:10:25.935Z,10.40
2022-11-05T17:12:53.329Z,10.40
2022-11-05T17:15:22.982Z,10.40
2022-11-05T17:17:50.327Z,10.40
2022-11-05T17:20:36.770Z,10.40
2022-11-05T17:23:07.752Z,10.30
2022-11-05T17:25:34.691Z,10.50
2022-11-05T17:28:01.934Z,10.40
2022-11-05T17:30:28.755Z,10.40
2022-11-05T17:32:55.762Z,10.60
2022-11-05T17:35:22.869Z,10.20
2022-11-05T17:37:50.026Z,10.50
2022-11-05T17:40:22.709Z,10.50
2022-11-05T17:42:50.885Z,10.30
2022-11-05T17:45:18.707Z,10.20
2022-11-05T17:47:45.972Z,10.20
2022-11-05T17:50:14.396Z,10.20
2022-11-05T17:52:41.131Z,10.30
2022-11-05T17:55:16.119Z,10.20
2022-11-05T17:57:50.904Z,10.20
2022-11-05T18:00:20.756Z,10.20
2022-11-05T18:02:49.563Z,10.20
2022-11-05T18:05:20.733Z,10.20
2022-11-05T18:07:47.856Z,10.30
2022-11-05T18:10:15.894Z,9.80
2022-11-05T18:12:43.362Z,10.30
2022-11-05T18:15:10.703Z,10.40
2022-11-05T18:17:38.203Z,10.20
2022-11-05T18:20:10.707Z,10.20
2022-11-05T18:22:40.185Z,10.10
2022-11-05T18:25:08.170Z,10.20
2022-11-05T18:27:35.650Z,10.20
2022-11-05T18:30:02.627Z,10.20
2022-11-05T18:32:29.524Z,10.40
2022-11-05T18:34:56.285Z,10.10
2022-11-05T18:37:23.091Z,10.20
2022-11-05T18:39:54.094Z,10.50
2022-11-05T18:42:21.659Z,10.20
2022-11-05T18:44:49.073Z,10.20
2022-11-05T18:47:15.848Z,10.10
2022-11-05T18:49:43.172Z,10.10
2022-11-05T18:52:10.152Z,10.20
2022-11-05T18:54:36.996Z,10.00
2022-11-05T18:57:03.893Z,10.00
2022-11-05T18:59:37.819Z,10.10
2022-11-05T19:02:06.031Z,10.40
2022-11-05T19:04:34.752Z,10.10
2022-11-05T19:07:05.413Z,10.10
2022-11-05T19:09:37.345Z,9.90
2022-11-05T19:12:06.632Z,10.00
2022-11-05T19:14:34.830Z,10.00
2022-11-05T19:17:06.822Z,10.00
2022-11-05T19:19:34.314Z,9.90
2022-11-05T19:22:01.087Z,9.90
2022-11-05T19:24:28.057Z,10.00
2022-11-05T19:26:55.738Z,9.90
2022-11-05T19:29:22.794Z,9.90
2022-11-05T19:31:50.177Z,9.90
2022-11-05T19:34:17.009Z,9.90
2022-11-05T19:36:43.856Z,9.90
2022-11-05T19:39:16.967Z,10.00
2022-11-05T19:41:43.852Z,10.10
2022-11-05T19:44:10.974Z,9.90
2022-11-05T19:46:38.459Z,10.00
2022-11-05T19:49:05.229Z,10.00
2022-11-05T19:51:32.896Z,9.90
2022-11-05T19:54:01.672Z,10.10
2022-11-05T19:56:32.081Z,10.00
2022-11-05T19:58:59.968Z,10.00
2022-11-05T20:01:29.071Z,9.90
2022-11-05T20:03:57.517Z,9.90
2022-11-05T20:06:29.338Z,10.10
2022-11-05T20:11:49.368Z,9.90
2022-11-05T20:14:16.877Z,9.80
2022-11-05T20:16:44.965Z,10.00
2022-11-05T20:19:15.075Z,9.80
2022-11-05T20:21:42.091Z,10.10
2022-11-05T20:24:10.447Z,9.90
2022-11-05T20:26:37.434Z,9.90
2022-11-05T20:29:04.393Z,9.90
2022-11-05T20:31:31.195Z,9.80
2022-11-05T20:33:58.045Z,9.90
2022-11-05T20:36:26.249Z,9.80
2022-11-05T20:39:02.748Z,9.80
2022-11-05T20:41:30.691Z,9.90
2022-11-05T20:43:57.753Z,9.80
2022-11-05T20:46:25.005Z,9.80
2022-11-05T20:48:52.245Z,9.80
2022-11-05T20:51:21.705Z,9.80
2022-11-05T20:53:48.967Z,9.80
2022-11-05T20:56:25.011Z,9.90
2022-11-05T20:58:52.095Z,9.70
2022-11-05T21:01:19.737Z,9.70
2022-11-05T21:03:47.868Z,9.70
2022-11-05T21:06:15.499Z,9.80
2022-11-05T21:08:42.366Z,9.70
2022-11-05T21:11:10.292Z,9.70
2022-11-05T21:13:37.762Z,9.70
2022-11-05T21:16:06.663Z,9.70
2022-11-05T21:18:35.473Z,9.70
2022-11-05T21:21:10.628Z,9.60
2022-11-05T21:23:37.742Z,9.90
2022-11-05T21:26:06.646Z,9.70
2022-11-05T21:28:34.454Z,9.60
2022-11-05T21:31:02.550Z,9.70
2022-11-05T21:33:29.728Z,9.50
2022-11-05T21:35:56.760Z,9.70
2022-11-05T21:38:25.069Z,10.00
2022-11-05T21:40:51.900Z,9.80
2022-11-05T21:43:18.696Z,9.80
2022-11-05T21:45:45.456Z,9.70
2022-11-05T21:48:15.090Z,9.70
2022-11-05T21:51:00.929Z,9.70
2022-11-05T21:53:46.578Z,9.70
2022-11-05T21:56:41.376Z,9.70
2022-11-05T21:59:30.581Z,9.70
2022-11-05T22:02:01.546Z,9.60
2022-11-05T22:04:34.936Z,9.70
2022-11-05T22:07:02.659Z,9.70
2022-11-05T22:09:29.867Z,9.80
2022-11-05T22:11:56.782Z,9.60
2022-11-05T22:14:24.146Z,9.70
2022-11-05T22:16:51.304Z,9.60
2022-11-05T22:19:19.240Z,9.70
2022-11-05T22:21:46.329Z,9.70
2022-11-05T22:24:13.121Z,9.80
2022-11-05T22:26:40.174Z,9.90
2022-11-05T22:29:07.004Z,9.60
2022-11-05T22:31:36.551Z,9.60
2022-11-05T22:34:05.510Z,9.70
2022-11-05T22:36:34.085Z,9.70
2022-11-05T22:39:01.592Z,9.60
2022-11-05T22:41:28.505Z,9.60
2022-11-05T22:43:55.798Z,9.60
2022-11-05T22:46:24.131Z,9.60
2022-11-05T22:48:51.466Z,9.60
2022-11-05T22:51:23.854Z,9.50
2022-11-05T22:53:51.066Z,9.60
2022-11-05T22:56:20.855Z,9.60
2022-11-05T22:58:48.354Z,9.60
2022-11-05T23:01:16.111Z,9.60
2022-11-05T23:03:44.846Z,9.60
2022-11-05T23:06:36.857Z,9.60
2022-11-05T23:09:35.730Z,9.90
2022-11-05T23:12:04.501Z,9.60
2022-11-05T23:14:31.355Z,9.60
2022-11-05T23:17:16.752Z,9.60
2022-11-05T23:20:02.065Z,9.60
2022-11-05T23:22:49.044Z,9.80
2022-11-05T23:25:23.535Z,9.60
2022-11-05T23:27:52.342Z,9.60
2022-11-05T23:30:26.336Z,9.60
2022-11-05T23:32:53.795Z,9.50
2022-11-05T23:35:39.316Z,9.50
2022-11-05T23:38:24.826Z,9.50
2022-11-05T23:41:10.562Z,9.60
2022-11-05T23:43:56.018Z,9.70
2022-11-05T23:46:41.436Z,9.50
2022-11-05T23:49:08.400Z,9.50
2022-11-05T23:51:35.148Z,9.50
2022-11-05T23:54:01.903Z,9.60
2022-11-05T23:56:28.796Z,9.60
2022-11-05T23:58:55.520Z,9.60
